sensor_id;sensor_type;location;lat;lon;timestamp;P1;durP1;ratioP1;P2;durP2;ratioP2
46875;SDS011;32866;50.160;14.768;2022-10-16T14:05:56;3.05;;;1.10;;
46875;SDS011;32866;50.160;14.768;2022-10-16T14:08:25;1.25;;;1.13;;
46875;SDS011;32866;50.160;14.768;2022-10-16T14:10:55;3.13;;;1.55;;
46875;SDS011;32866;50.160;14.768;2022-10-16T14:13:29;2.67;;;1.42;;
46875;SDS011;32866;50.160;14.768;2022-10-16T14:15:57;2.45;;;1.20;;
46875;SDS011;32866;50.160;14.768;2022-10-16T14:18:27;2.15;;;1.42;;
46875;SDS011;32866;50.160;14.768;2022-10-16T14:20:53;2.05;;;1.45;;
46875;SDS011;32866;50.160;14.768;2022-10-16T14:23:21;2.20;;;1.40;;
46875;SDS011;32866;50.160;14.768;2022-10-16T14:26:05;1.65;;;1.40;;
46875;SDS011;32866;50.160;14.768;2022-10-16T14:28:33;1.52;;;1.20;;
46875;SDS011;32866;50.160;14.768;2022-10-16T14:30:59;2.60;;;1.20;;
46875;SDS011;32866;50.160;14.768;2022-10-16T14:36:27;1.90;;;1.50;;
46875;SDS011;32866;50.160;14.768;2022-10-16T14:41:30;2.10;;;1.42;;
46875;SDS011;32866;50.160;14.768;2022-10-16T14:44:00;3.25;;;1.50;;
46875;SDS011;32866;50.160;14.768;2022-10-16T14:46:29;1.88;;;1.38;;
46875;SDS011;32866;50.160;14.768;2022-10-16T14:51:34;3.05;;;1.55;;
46875;SDS011;32866;50.160;14.768;2022-10-16T14:56:25;2.63;;;1.83;;
46875;SDS011;32866;50.160;14.768;2022-10-16T14:58:55;1.88;;;1.50;;
46875;SDS011;32866;50.160;14.768;2022-10-16T15:03:46;4.03;;;1.85;;
46875;SDS011;32866;50.160;14.768;2022-10-16T15:06:12;2.63;;;1.58;;
46875;SDS011;32866;50.160;14.768;2022-10-16T15:08:39;3.03;;;1.98;;
46875;SDS011;32866;50.160;14.768;2022-10-16T15:13:30;3.42;;;1.63;;
46875;SDS011;32866;50.160;14.768;2022-10-16T15:18:21;2.25;;;1.40;;
46875;SDS011;32866;50.160;14.768;2022-10-16T15:20:50;1.88;;;1.55;;
46875;SDS011;32866;50.160;14.768;2022-10-16T15:23:17;2.60;;;1.75;;
46875;SDS011;32866;50.160;14.768;2022-10-16T15:25:45;2.97;;;1.70;;
46875;SDS011;32866;50.160;14.768;2022-10-16T15:28:16;2.03;;;1.70;;
46875;SDS011;32866;50.160;14.768;2022-10-16T15:30:42;2.97;;;2.00;;
46875;SDS011;32866;50.160;14.768;2022-10-16T15:33:13;2.88;;;2.33;;
46875;SDS011;32866;50.160;14.768;2022-10-16T15:35:40;3.65;;;2.30;;
46875;SDS011;32866;50.160;14.768;2022-10-16T15:40:31;4.95;;;2.80;;
46875;SDS011;32866;50.160;14.768;2022-10-16T15:42:56;5.68;;;3.15;;
46875;SDS011;32866;50.160;14.768;2022-10-16T15:45:21;5.97;;;4.25;;
46875;SDS011;32866;50.160;14.768;2022-10-16T15:47:47;6.72;;;3.40;;
46875;SDS011;32866;50.160;14.768;2022-10-16T15:52:39;7.80;;;4.97;;
46875;SDS011;32866;50.160;14.768;2022-10-16T15:57:31;6.68;;;4.40;;
46875;SDS011;32866;50.160;14.768;2022-10-16T16:02:22;8.60;;;6.30;;
46875;SDS011;32866;50.160;14.768;2022-10-16T16:04:47;10.30;;;6.32;;
46875;SDS011;32866;50.160;14.768;2022-10-16T16:09:38;9.85;;;6.53;;
46875;SDS011;32866;50.160;14.768;2022-10-16T16:14:28;9.73;;;6.78;;
46875;SDS011;32866;50.160;14.768;2022-10-16T16:19:19;9.38;;;6.28;;
46875;SDS011;32866;50.160;14.768;2022-10-16T16:21:46;8.50;;;5.68;;
46875;SDS011;32866;50.160;14.768;2022-10-16T16:24:12;8.68;;;5.53;;
46875;SDS011;32866;50.160;14.768;2022-10-16T16:29:04;7.80;;;5.88;;
46875;SDS011;32866;50.160;14.768;2022-10-16T16:33:56;10.23;;;6.50;;
46875;SDS011;32866;50.160;14.768;2022-10-16T16:38:48;10.63;;;5.00;;
46875;SDS011;32866;50.160;14.768;2022-10-16T16:43:45;9.50;;;5.63;;
46875;SDS011;32866;50.160;14.768;2022-10-16T16:46:12;7.95;;;5.55;;
46875;SDS011;32866;50.160;14.768;2022-10-16T16:48:39;14.65;;;6.40;;
46875;SDS011;32866;50.160;14.768;2022-10-16T16:51:05;9.02;;;7.13;;
46875;SDS011;32866;50.160;14.768;2022-10-16T16:53:40;10.88;;;7.65;;
46875;SDS011;32866;50.160;14.768;2022-10-16T16:58:31;12.18;;;8.30;;
46875;SDS011;32866;50.160;14.768;2022-10-16T17:03:28;14.00;;;8.48;;
46875;SDS011;32866;50.160;14.768;2022-10-16T17:06:05;15.45;;;9.32;;
46875;SDS011;32866;50.160;14.768;2022-10-16T17:08:32;12.88;;;8.05;;
46875;SDS011;32866;50.160;14.768;2022-10-16T17:10:59;13.25;;;8.77;;
46875;SDS011;32866;50.160;14.768;2022-10-16T17:15:51;13.73;;;7.00;;
46875;SDS011;32866;50.160;14.768;2022-10-16T17:18:18;12.95;;;8.80;;
46875;SDS011;32866;50.160;14.768;2022-10-16T17:20:44;11.57;;;7.07;;
46875;SDS011;32866;50.160;14.768;2022-10-16T17:25:36;8.50;;;6.35;;
46875;SDS011;32866;50.160;14.768;2022-10-16T17:30:27;10.88;;;6.30;;
46875;SDS011;32866;50.160;14.768;2022-10-16T17:35:18;10.27;;;6.35;;
46875;SDS011;32866;50.160;14.768;2022-10-16T17:40:09;10.15;;;5.18;;
46875;SDS011;32866;50.160;14.768;2022-10-16T17:42:35;7.95;;;6.18;;
46875;SDS011;32866;50.160;14.768;2022-10-16T17:47:26;15.98;;;5.97;;
46875;SDS011;32866;50.160;14.768;2022-10-16T17:49:52;9.48;;;6.25;;
46875;SDS011;32866;50.160;14.768;2022-10-16T17:54:42;9.55;;;6.95;;
46875;SDS011;32866;50.160;14.768;2022-10-16T17:59:33;15.88;;;7.47;;
46875;SDS011;32866;50.160;14.768;2022-10-16T18:04:24;12.13;;;7.65;;
46875;SDS011;32866;50.160;14.768;2022-10-16T18:09:15;16.33;;;7.38;;
46875;SDS011;32866;50.160;14.768;2022-10-16T18:11:42;14.38;;;8.55;;
46875;SDS011;32866;50.160;14.768;2022-10-16T18:16:32;13.55;;;8.00;;
46875;SDS011;32866;50.160;14.768;2022-10-16T18:19:00;15.80;;;6.90;;
46875;SDS011;32866;50.160;14.768;2022-10-16T18:23:52;14.02;;;8.48;;
46875;SDS011;32866;50.160;14.768;2022-10-16T18:26:19;11.15;;;7.25;;
46875;SDS011;32866;50.160;14.768;2022-10-16T18:28:45;13.75;;;8.18;;
46875;SDS011;32866;50.160;14.768;2022-10-16T18:31:11;16.70;;;9.90;;
46875;SDS011;32866;50.160;14.768;2022-10-16T18:33:39;18.95;;;8.85;;
46875;SDS011;32866;50.160;14.768;2022-10-16T18:36:06;14.43;;;8.77;;
46875;SDS011;32866;50.160;14.768;2022-10-16T18:38:33;14.48;;;9.75;;
46875;SDS011;32866;50.160;14.768;2022-10-16T18:40:59;16.45;;;9.85;;
46875;SDS011;32866;50.160;14.768;2022-10-16T18:43:29;18.30;;;11.63;;
46875;SDS011;32866;50.160;14.768;2022-10-16T18:45:57;17.63;;;11.50;;
46875;SDS011;32866;50.160;14.768;2022-10-16T18:48:23;19.70;;;12.13;;
46875;SDS011;32866;50.160;14.768;2022-10-16T18:53:15;18.20;;;11.30;;
46875;SDS011;32866;50.160;14.768;2022-10-16T18:58:05;17.52;;;11.70;;
46875;SDS011;32866;50.160;14.768;2022-10-16T19:02:57;25.20;;;15.07;;
46875;SDS011;32866;50.160;14.768;2022-10-16T19:07:48;32.22;;;16.25;;
46875;SDS011;32866;50.160;14.768;2022-10-16T19:12:38;30.30;;;17.55;;
46875;SDS011;32866;50.160;14.768;2022-10-16T19:15:05;34.17;;;20.40;;
46875;SDS011;32866;50.160;14.768;2022-10-16T19:17:30;32.38;;;19.02;;
46875;SDS011;32866;50.160;14.768;2022-10-16T19:19:56;31.45;;;18.63;;
46875;SDS011;32866;50.160;14.768;2022-10-16T19:22:21;31.65;;;18.17;;
46875;SDS011;32866;50.160;14.768;2022-10-16T19:24:55;30.55;;;19.80;;
46875;SDS011;32866;50.160;14.768;2022-10-16T19:27:21;29.92;;;18.88;;
46875;SDS011;32866;50.160;14.768;2022-10-16T19:29:46;30.10;;;18.63;;
46875;SDS011;32866;50.160;14.768;2022-10-16T19:34:37;39.13;;;21.65;;
46875;SDS011;32866;50.160;14.768;2022-10-16T19:39:28;32.17;;;20.60;;
46875;SDS011;32866;50.160;14.768;2022-10-16T19:44:18;35.58;;;21.90;;
46875;SDS011;32866;50.160;14.768;2022-10-16T19:49:11;33.83;;;20.98;;
46875;SDS011;32866;50.160;14.768;2022-10-16T19:51:37;39.78;;;23.20;;
46875;SDS011;32866;50.160;14.768;2022-10-16T19:56:30;40.17;;;24.35;;
46875;SDS011;32866;50.160;14.768;2022-10-16T19:58:57;37.00;;;22.30;;
46875;SDS011;32866;50.160;14.768;2022-10-16T20:01:24;37.88;;;23.02;;
46875;SDS011;32866;50.160;14.768;2022-10-16T20:03:51;36.75;;;21.88;;
46875;SDS011;32866;50.160;14.768;2022-10-16T20:06:19;35.33;;;23.55;;
46875;SDS011;32866;50.160;14.768;2022-10-16T20:08:46;37.67;;;24.20;;
46875;SDS011;32866;50.160;14.768;2022-10-16T20:11:32;35.22;;;21.20;;
46875;SDS011;32866;50.160;14.768;2022-10-16T20:13:59;37.17;;;23.15;;
46875;SDS011;32866;50.160;14.768;2022-10-16T20:16:25;34.50;;;22.90;;
46875;SDS011;32866;50.160;14.768;2022-10-16T20:18:51;35.92;;;22.23;;
46875;SDS011;32866;50.160;14.768;2022-10-16T20:21:21;32.45;;;22.17;;
46875;SDS011;32866;50.160;14.768;2022-10-16T20:23:48;33.25;;;21.25;;
46875;SDS011;32866;50.160;14.768;2022-10-16T20:26:14;32.80;;;21.95;;
46875;SDS011;32866;50.160;14.768;2022-10-16T20:28:41;35.60;;;21.35;;
46875;SDS011;32866;50.160;14.768;2022-10-16T20:31:08;31.52;;;20.55;;
46875;SDS011;32866;50.160;14.768;2022-10-16T20:33:37;33.72;;;22.10;;
46875;SDS011;32866;50.160;14.768;2022-10-16T20:36:03;31.75;;;21.23;;
46875;SDS011;32866;50.160;14.768;2022-10-16T20:38:29;32.03;;;20.38;;
46875;SDS011;32866;50.160;14.768;2022-10-16T20:40:54;34.20;;;20.25;;
46875;SDS011;32866;50.160;14.768;2022-10-16T20:45:45;28.35;;;20.00;;
46875;SDS011;32866;50.160;14.768;2022-10-16T20:50:37;34.53;;;20.27;;
46875;SDS011;32866;50.160;14.768;2022-10-16T20:53:04;36.13;;;20.10;;
46875;SDS011;32866;50.160;14.768;2022-10-16T20:55:30;28.52;;;18.45;;
46875;SDS011;32866;50.160;14.768;2022-10-16T20:57:58;36.72;;;19.48;;
46875;SDS011;32866;50.160;14.768;2022-10-16T21:00:23;29.27;;;20.77;;
46875;SDS011;32866;50.160;14.768;2022-10-16T21:02:49;31.60;;;18.65;;
46875;SDS011;32866;50.160;14.768;2022-10-16T21:05:15;29.88;;;19.30;;
46875;SDS011;32866;50.160;14.768;2022-10-16T21:07:41;31.25;;;21.92;;
46875;SDS011;32866;50.160;14.768;2022-10-16T21:10:06;35.08;;;20.02;;
46875;SDS011;32866;50.160;14.768;2022-10-16T21:14:57;33.20;;;18.48;;
46875;SDS011;32866;50.160;14.768;2022-10-16T21:17:22;27.80;;;18.02;;
46875;SDS011;32866;50.160;14.768;2022-10-16T21:19:47;34.40;;;19.05;;
46875;SDS011;32866;50.160;14.768;2022-10-16T21:22:13;29.20;;;18.38;;
46875;SDS011;32866;50.160;14.768;2022-10-16T21:24:38;30.98;;;19.45;;
46875;SDS011;32866;50.160;14.768;2022-10-16T21:29:32;27.08;;;17.33;;
46875;SDS011;32866;50.160;14.768;2022-10-16T21:31:57;26.98;;;17.63;;
46875;SDS011;32866;50.160;14.768;2022-10-16T21:36:48;26.92;;;16.42;;
46875;SDS011;32866;50.160;14.768;2022-10-16T21:39:15;28.85;;;18.13;;
46875;SDS011;32866;50.160;14.768;2022-10-16T21:41:43;25.55;;;17.02;;
46875;SDS011;32866;50.160;14.768;2022-10-16T21:44:10;27.83;;;17.88;;
46875;SDS011;32866;50.160;14.768;2022-10-16T21:46:37;28.75;;;18.55;;
46875;SDS011;32866;50.160;14.768;2022-10-16T21:49:05;32.40;;;19.02;;
46875;SDS011;32866;50.160;14.768;2022-10-16T21:51:35;30.10;;;17.75;;
46875;SDS011;32866;50.160;14.768;2022-10-16T21:54:03;32.97;;;19.83;;
46875;SDS011;32866;50.160;14.768;2022-10-16T21:56:30;32.50;;;19.95;;
46875;SDS011;32866;50.160;14.768;2022-10-16T21:58:56;32.40;;;20.58;;
46875;SDS011;32866;50.160;14.768;2022-10-16T22:01:22;29.60;;;18.42;;
46875;SDS011;32866;50.160;14.768;2022-10-16T22:03:49;28.58;;;18.15;;
46875;SDS011;32866;50.160;14.768;2022-10-16T22:06:16;25.30;;;15.73;;
46875;SDS011;32866;50.160;14.768;2022-10-16T22:08:44;22.75;;;16.15;;
46875;SDS011;32866;50.160;14.768;2022-10-16T22:11:12;26.70;;;18.52;;
46875;SDS011;32866;50.160;14.768;2022-10-16T22:13:42;27.98;;;17.73;;
46875;SDS011;32866;50.160;14.768;2022-10-16T22:18:34;28.60;;;17.50;;
46875;SDS011;32866;50.160;14.768;2022-10-16T22:21:00;27.05;;;17.73;;
46875;SDS011;32866;50.160;14.768;2022-10-16T22:23:26;31.85;;;19.05;;
46875;SDS011;32866;50.160;14.768;2022-10-16T22:25:51;30.75;;;19.20;;
46875;SDS011;32866;50.160;14.768;2022-10-16T22:28:23;33.60;;;20.55;;
46875;SDS011;32866;50.160;14.768;2022-10-16T22:30:48;31.25;;;18.60;;
46875;SDS011;32866;50.160;14.768;2022-10-16T22:33:13;30.33;;;20.00;;
46875;SDS011;32866;50.160;14.768;2022-10-16T22:38:05;29.90;;;18.90;;
46875;SDS011;32866;50.160;14.768;2022-10-16T22:40:33;40.95;;;22.65;;
46875;SDS011;32866;50.160;14.768;2022-10-16T22:43:00;33.55;;;20.02;;
46875;SDS011;32866;50.160;14.768;2022-10-16T22:45:31;33.10;;;19.35;;
46875;SDS011;32866;50.160;14.768;2022-10-16T22:47:59;33.15;;;20.58;;
46875;SDS011;32866;50.160;14.768;2022-10-16T22:52:50;35.72;;;22.40;;
46875;SDS011;32866;50.160;14.768;2022-10-16T22:55:16;43.25;;;22.23;;
46875;SDS011;32866;50.160;14.768;2022-10-16T22:57:41;36.55;;;22.40;;
46875;SDS011;32866;50.160;14.768;2022-10-16T23:00:07;34.83;;;21.45;;
46875;SDS011;32866;50.160;14.768;2022-10-16T23:02:36;32.85;;;20.33;;
46875;SDS011;32866;50.160;14.768;2022-10-16T23:05:02;37.22;;;22.83;;
46875;SDS011;32866;50.160;14.768;2022-10-16T23:07:27;34.03;;;23.20;;
46875;SDS011;32866;50.160;14.768;2022-10-16T23:09:53;33.58;;;21.50;;
46875;SDS011;32866;50.160;14.768;2022-10-16T23:12:19;32.20;;;21.00;;
46875;SDS011;32866;50.160;14.768;2022-10-16T23:14:45;32.88;;;20.27;;
46875;SDS011;32866;50.160;14.768;2022-10-16T23:17:11;33.17;;;20.98;;
46875;SDS011;32866;50.160;14.768;2022-10-16T23:19:36;35.45;;;23.60;;
46875;SDS011;32866;50.160;14.768;2022-10-16T23:22:02;36.70;;;22.67;;
46875;SDS011;32866;50.160;14.768;2022-10-16T23:24:28;42.45;;;24.95;;
46875;SDS011;32866;50.160;14.768;2022-10-16T23:26:55;35.63;;;22.60;;
46875;SDS011;32866;50.160;14.768;2022-10-16T23:29:20;38.88;;;23.90;;
46875;SDS011;32866;50.160;14.768;2022-10-16T23:31:45;36.30;;;22.38;;
46875;SDS011;32866;50.160;14.768;2022-10-16T23:34:11;37.95;;;23.25;;
46875;SDS011;32866;50.160;14.768;2022-10-16T23:36:36;37.88;;;22.77;;
46875;SDS011;32866;50.160;14.768;2022-10-16T23:39:01;40.75;;;26.65;;
46875;SDS011;32866;50.160;14.768;2022-10-16T23:41:27;36.50;;;22.48;;
46875;SDS011;32866;50.160;14.768;2022-10-16T23:43:52;37.55;;;24.40;;
46875;SDS011;32866;50.160;14.768;2022-10-16T23:46:18;36.90;;;23.67;;
46875;SDS011;32866;50.160;14.768;2022-10-16T23:48:43;41.78;;;26.15;;
46875;SDS011;32866;50.160;14.768;2022-10-16T23:51:09;38.75;;;23.52;;
46875;SDS011;32866;50.160;14.768;2022-10-16T23:53:35;42.35;;;25.15;;
46875;SDS011;32866;50.160;14.768;2022-10-16T23:56:00;36.28;;;22.80;;
46875;SDS011;32866;50.160;14.768;2022-10-16T23:58:26;39.00;;;25.27;;
